createdAt,value
2023-10-10T05:06:07.374Z,37.86
2023-10-10T05:08:33.775Z,38.07
2023-10-10T05:11:00.057Z,38.38
2023-10-10T05:13:26.362Z,36.87
2023-10-10T05:15:52.729Z,36.03
2023-10-10T05:18:19.172Z,35.39
2023-10-10T05:20:45.513Z,35.31
2023-10-10T05:23:11.956Z,35.07
2023-10-10T05:25:38.362Z,34.46
2023-10-10T05:28:04.727Z,34.44
2023-10-10T05:30:31.043Z,35.77
2023-10-10T05:32:57.453Z,34.32
2023-10-10T05:35:23.763Z,33.86
2023-10-10T05:37:50.102Z,34.97
2023-10-10T05:40:16.535Z,33.74
2023-10-10T05:42:42.871Z,33.97
2023-10-10T05:45:09.270Z,33.26
2023-10-10T05:47:35.666Z,33.30
2023-10-10T05:50:02.012Z,33.04
2023-10-10T05:52:28.312Z,33.08
2023-10-10T05:54:54.631Z,32.89
2023-10-10T05:57:21.071Z,33.03
2023-10-10T05:59:47.491Z,32.99
2023-10-10T06:02:13.815Z,33.00
2023-10-10T06:04:40.220Z,33.00
2023-10-10T06:07:06.603Z,33.04
2023-10-10T06:09:32.904Z,32.67
2023-10-10T06:11:59.225Z,32.84
2023-10-10T06:14:25.638Z,32.91
2023-10-10T06:16:51.931Z,32.82
2023-10-10T06:19:18.245Z,32.80
2023-10-10T06:21:44.691Z,32.79
2023-10-10T06:24:11.116Z,32.56
2023-10-10T06:26:37.503Z,32.51
2023-10-10T06:29:03.890Z,32.51
2023-10-10T06:31:30.493Z,32.59
2023-10-10T06:33:56.753Z,32.76
2023-10-10T06:36:23.244Z,32.68
2023-10-10T06:38:49.412Z,32.66
2023-10-10T06:41:15.753Z,32.45
2023-10-10T06:43:42.045Z,32.55
2023-10-10T06:46:08.456Z,32.65
2023-10-10T06:48:34.834Z,32.34
2023-10-10T06:51:01.281Z,32.24
2023-10-10T06:53:27.663Z,32.12
2023-10-10T06:55:53.977Z,32.03
2023-10-10T06:58:20.371Z,32.33
2023-10-10T07:00:46.883Z,33.04
2023-10-10T07:03:13.281Z,32.54
2023-10-10T07:05:39.511Z,32.66
2023-10-10T07:08:05.800Z,32.94
2023-10-10T07:10:32.104Z,33.28
2023-10-10T07:12:58.418Z,33.14
2023-10-10T07:15:24.811Z,33.15
2023-10-10T07:17:51.296Z,33.36
2023-10-10T07:20:17.489Z,33.20
2023-10-10T07:22:43.772Z,33.34
2023-10-10T07:25:10.114Z,33.50
2023-10-10T07:27:36.482Z,33.61
2023-10-10T07:30:02.880Z,33.55
2023-10-10T07:32:29.535Z,33.63
2023-10-10T07:34:55.559Z,33.75
2023-10-10T07:37:21.907Z,33.84
2023-10-10T07:39:48.302Z,33.84
2023-10-10T07:42:14.805Z,33.92
2023-10-10T07:44:41.107Z,33.92
2023-10-10T07:47:07.504Z,33.95
2023-10-10T07:49:33.805Z,34.05
2023-10-10T07:52:00.135Z,34.01
2023-10-10T07:54:26.620Z,34.02
2023-10-10T07:56:52.962Z,34.12
2023-10-10T07:59:19.327Z,34.03
2023-10-10T08:01:45.776Z,34.12
2023-10-10T08:04:13.156Z,34.19
2023-10-10T08:06:38.343Z,34.10
2023-10-10T08:09:04.682Z,34.06
2023-10-10T08:11:31.237Z,34.02
2023-10-10T08:13:57.662Z,33.98
2023-10-10T08:16:24.040Z,33.34
2023-10-10T08:18:50.329Z,33.33
2023-10-10T08:21:16.704Z,33.43
2023-10-10T08:23:43.095Z,33.57
2023-10-10T08:26:09.440Z,33.44
2023-10-10T08:28:35.749Z,33.35
2023-10-10T08:31:02.215Z,33.24
2023-10-10T08:33:28.670Z,33.31
2023-10-10T08:35:54.986Z,33.15
2023-10-10T08:38:21.667Z,33.21
2023-10-10T08:40:47.803Z,33.42
2023-10-10T08:43:14.235Z,33.36
2023-10-10T08:45:40.659Z,33.32
2023-10-10T08:48:07.076Z,33.26
2023-10-10T08:50:33.466Z,33.08
2023-10-10T08:52:59.866Z,33.10
2023-10-10T08:55:26.195Z,33.01
2023-10-10T08:57:52.632Z,32.83
2023-10-10T09:00:19.091Z,32.98
2023-10-10T09:02:45.421Z,32.84
2023-10-10T09:05:11.639Z,32.75
2023-10-10T09:07:37.931Z,32.50
2023-10-10T09:10:04.252Z,32.48
2023-10-10T09:12:30.629Z,32.30
2023-10-10T09:14:57.066Z,33.03
2023-10-10T09:17:23.558Z,32.29
2023-10-10T09:19:49.977Z,32.27
2023-10-10T09:22:16.368Z,32.01
2023-10-10T09:24:42.713Z,31.99
2023-10-10T09:27:09.122Z,32.06
2023-10-10T09:29:35.681Z,31.79
2023-10-10T09:32:01.746Z,31.79
2023-10-10T09:34:28.081Z,32.00
2023-10-10T09:36:57.542Z,31.97
2023-10-10T09:39:20.873Z,31.81
2023-10-10T09:41:47.358Z,31.73
2023-10-10T09:44:13.688Z,31.61
2023-10-10T09:46:39.961Z,31.84
2023-10-10T09:49:06.302Z,32.05
2023-10-10T09:51:32.736Z,32.42
2023-10-10T09:53:59.213Z,32.39
2023-10-10T09:56:25.555Z,32.13
2023-10-10T09:58:51.949Z,32.17
2023-10-10T10:01:18.498Z,32.58
2023-10-10T10:03:44.912Z,31.78
2023-10-10T10:06:11.219Z,31.73
2023-10-10T10:08:37.706Z,31.66
2023-10-10T10:11:04.003Z,31.58
2023-10-10T10:13:30.336Z,32.02
2023-10-10T10:15:56.805Z,31.55
2023-10-10T10:18:23.284Z,31.54
2023-10-10T10:20:49.669Z,31.63
2023-10-10T10:23:16.024Z,32.00
2023-10-10T10:25:42.342Z,31.59
2023-10-10T10:28:08.704Z,31.71
2023-10-10T10:30:35.068Z,31.56
2023-10-10T10:33:01.492Z,31.63
2023-10-10T10:35:27.731Z,31.73
2023-10-10T10:37:54.089Z,31.34
2023-10-10T10:40:20.421Z,31.31
2023-10-10T10:42:46.746Z,31.45
2023-10-10T10:45:13.082Z,31.36
2023-10-10T10:47:39.712Z,31.61
2023-10-10T10:50:05.991Z,31.41
2023-10-10T10:52:32.353Z,31.28
2023-10-10T10:54:58.785Z,31.28
2023-10-10T10:57:32.691Z,31.43
2023-10-10T10:59:51.573Z,31.56
2023-10-10T11:02:17.874Z,31.71
2023-10-10T11:04:44.913Z,32.06
2023-10-10T11:07:10.580Z,31.78
2023-10-10T11:09:36.909Z,31.80
2023-10-10T11:12:04.592Z,32.30
2023-10-10T11:14:29.558Z,32.32
2023-10-10T11:16:55.965Z,32.38
2023-10-10T11:19:22.396Z,32.30
2023-10-10T11:21:48.870Z,32.72
2023-10-10T11:24:15.347Z,32.92
2023-10-10T11:26:41.626Z,33.12
2023-10-10T11:29:07.837Z,33.16
2023-10-10T11:31:34.283Z,33.37
2023-10-10T11:34:00.715Z,33.38
2023-10-10T11:36:27.137Z,33.40
2023-10-10T11:38:53.477Z,33.55
2023-10-10T11:41:19.882Z,33.44
2023-10-10T11:43:46.200Z,33.43
2023-10-10T11:46:12.568Z,33.45
2023-10-10T11:48:38.921Z,34.25
2023-10-10T11:51:05.272Z,33.58
2023-10-10T11:53:31.677Z,33.72
2023-10-10T11:55:58.099Z,33.40
2023-10-10T11:58:24.544Z,33.80
2023-10-10T12:00:50.848Z,34.27
2023-10-10T12:03:17.446Z,37.38
2023-10-10T12:05:43.757Z,35.55
2023-10-10T12:08:10.116Z,35.00
2023-10-10T12:10:36.494Z,34.87
2023-10-10T12:13:02.808Z,35.19
2023-10-10T12:15:29.259Z,35.08
2023-10-10T12:17:58.451Z,35.03
2023-10-10T12:20:22.056Z,35.01
2023-10-10T12:22:48.411Z,35.01
2023-10-10T12:25:14.897Z,35.00
2023-10-10T12:27:41.246Z,35.08
2023-10-10T12:30:07.587Z,35.12
2023-10-10T12:32:34.010Z,35.27
2023-10-10T12:35:00.272Z,36.60
2023-10-10T12:37:26.606Z,38.00
2023-10-10T12:39:52.923Z,38.12
2023-10-10T12:42:19.283Z,38.07
2023-10-10T12:44:45.654Z,36.41
2023-10-10T12:47:14.858Z,36.01
2023-10-10T12:49:38.491Z,35.95
2023-10-10T12:52:04.998Z,35.88
2023-10-10T12:54:31.291Z,35.83
2023-10-10T12:56:57.620Z,35.74
2023-10-10T12:59:27.484Z,35.80
2023-10-10T13:01:50.318Z,35.74
2023-10-10T13:04:16.863Z,35.72
2023-10-10T13:06:43.040Z,35.77
2023-10-10T13:09:09.378Z,35.77
2023-10-10T13:11:35.717Z,35.81
2023-10-10T13:14:02.132Z,35.77
2023-10-10T13:16:28.474Z,35.88
2023-10-10T13:18:54.809Z,35.89
2023-10-10T13:21:21.288Z,35.91
2023-10-10T13:23:47.594Z,35.94
2023-10-10T13:26:13.939Z,35.95
2023-10-10T13:28:40.213Z,35.93
2023-10-10T13:31:06.594Z,35.90
2023-10-10T13:33:32.963Z,35.97
2023-10-10T13:35:59.229Z,38.25
2023-10-10T13:38:25.718Z,36.99
2023-10-10T13:40:52.014Z,36.29
2023-10-10T13:43:18.507Z,36.06
2023-10-10T13:45:44.658Z,35.94
2023-10-10T13:48:11.072Z,35.88
2023-10-10T13:50:37.383Z,35.85
2023-10-10T13:53:03.715Z,35.81
2023-10-10T13:55:30.323Z,35.84
2023-10-10T13:57:56.872Z,35.81
2023-10-10T14:00:23.215Z,35.80
2023-10-10T14:02:49.816Z,35.58
2023-10-10T14:05:16.282Z,35.54
2023-10-10T14:07:42.632Z,35.57
2023-10-10T14:10:08.918Z,35.54
2023-10-10T14:12:35.230Z,36.45
2023-10-10T14:15:01.572Z,35.16
2023-10-10T14:17:28.163Z,34.95
2023-10-10T14:19:54.422Z,35.01
2023-10-10T14:22:20.842Z,34.84
2023-10-10T14:24:47.247Z,34.76
2023-10-10T14:27:13.686Z,34.67
2023-10-10T14:29:40.137Z,34.55
2023-10-10T14:32:06.450Z,34.49
2023-10-10T14:34:32.821Z,34.33
2023-10-10T14:36:59.227Z,34.21
2023-10-10T14:39:25.648Z,34.21
2023-10-10T14:41:51.986Z,34.11
2023-10-10T14:44:18.314Z,34.27
2023-10-10T14:46:44.646Z,34.11
2023-10-10T14:49:10.928Z,34.17
2023-10-10T14:51:37.349Z,33.82
2023-10-10T14:54:04.015Z,33.71
2023-10-10T14:56:30.079Z,33.89
2023-10-10T14:58:56.376Z,33.44
2023-10-10T15:01:22.728Z,33.12
2023-10-10T15:03:49.271Z,33.50
2023-10-10T15:06:15.327Z,33.48
2023-10-10T15:08:41.698Z,37.11
2023-10-10T15:11:07.965Z,37.88
2023-10-10T15:13:34.464Z,37.49
2023-10-10T15:16:00.819Z,36.87
2023-10-10T15:18:27.243Z,37.13
2023-10-10T15:20:53.496Z,34.78
2023-10-10T15:23:19.987Z,34.04
2023-10-10T15:25:46.410Z,33.45
2023-10-10T15:28:12.733Z,33.26
2023-10-10T15:30:39.120Z,33.04
2023-10-10T15:33:05.519Z,32.93
2023-10-10T15:35:31.740Z,32.88
2023-10-10T15:40:21.538Z,33.38
2023-10-10T15:42:47.876Z,33.42
2023-10-10T15:45:14.277Z,33.36
2023-10-10T15:47:40.666Z,33.59
2023-10-10T15:50:06.884Z,33.60
2023-10-10T15:52:33.209Z,33.60
2023-10-10T15:54:59.660Z,33.53
2023-10-10T15:57:25.977Z,33.62
2023-10-10T15:59:52.373Z,33.70
2023-10-10T16:02:18.621Z,33.70
2023-10-10T16:04:44.970Z,33.75
2023-10-10T16:07:11.258Z,33.98
2023-10-10T16:09:37.578Z,33.83
2023-10-10T16:12:03.947Z,33.83
2023-10-10T16:14:30.263Z,34.04
2023-10-10T16:16:56.732Z,34.04
2023-10-10T16:19:22.981Z,34.02
2023-10-10T16:21:49.382Z,34.04
2023-10-10T16:24:15.778Z,34.07
2023-10-10T16:26:42.071Z,34.01
2023-10-10T16:29:08.338Z,33.95
2023-10-10T16:31:34.758Z,34.02
2023-10-10T16:34:00.983Z,35.05
2023-10-10T16:36:27.317Z,37.33
2023-10-10T16:38:53.741Z,37.69
2023-10-10T16:41:20.164Z,37.78
2023-10-10T16:44:00.345Z,37.96
2023-10-10T16:46:12.830Z,38.00
2023-10-10T16:48:39.264Z,38.01
2023-10-10T16:51:05.598Z,38.00
2023-10-10T16:53:32.041Z,37.97
2023-10-10T16:55:58.448Z,37.99
2023-10-10T16:58:24.764Z,38.02
2023-10-10T17:00:51.123Z,38.06
2023-10-10T17:03:17.809Z,37.85
2023-10-10T17:05:43.954Z,38.01
2023-10-10T17:08:10.304Z,38.02
2023-10-10T17:10:39.369Z,38.00
2023-10-10T17:13:02.939Z,37.88
2023-10-10T17:15:29.315Z,37.81
2023-10-10T17:17:55.775Z,37.78
2023-10-10T17:20:22.064Z,37.79
2023-10-10T17:22:48.372Z,37.64
2023-10-10T17:25:14.853Z,36.89
2023-10-10T17:27:41.162Z,36.06
2023-10-10T17:30:07.624Z,35.29
2023-10-10T17:32:34.009Z,35.41
2023-10-10T17:35:00.253Z,35.57
2023-10-10T17:37:26.705Z,34.92
2023-10-10T17:39:53.036Z,34.75
2023-10-10T17:42:19.472Z,34.68
2023-10-10T17:44:45.949Z,34.72
2023-10-10T17:47:12.339Z,34.67
2023-10-10T17:49:38.764Z,34.57
2023-10-10T17:52:05.259Z,34.60
2023-10-10T17:54:31.549Z,34.52
2023-10-10T17:56:57.926Z,34.61
2023-10-10T17:59:24.229Z,34.57
2023-10-10T18:01:50.686Z,34.67
2023-10-10T18:04:17.441Z,34.67
2023-10-10T18:06:43.403Z,34.70
2023-10-10T18:09:10.158Z,34.62
2023-10-10T18:11:36.225Z,34.62
2023-10-10T18:14:02.496Z,34.54
2023-10-10T18:16:28.912Z,34.50
2023-10-10T18:18:55.502Z,34.52
2023-10-10T18:21:21.907Z,34.49
2023-10-10T18:23:48.416Z,36.51
2023-10-10T18:26:14.581Z,37.36
2023-10-10T18:28:40.898Z,37.74
2023-10-10T18:31:07.221Z,36.88
2023-10-10T18:33:33.713Z,35.52
2023-10-10T18:36:00.050Z,35.16
2023-10-10T18:38:26.336Z,35.50
2023-10-10T18:40:55.457Z,35.03
2023-10-10T18:43:19.076Z,34.97
2023-10-10T18:45:45.463Z,35.11
2023-10-10T18:48:12.179Z,34.95
2023-10-10T18:50:38.430Z,34.86
2023-10-10T18:53:04.810Z,34.81
2023-10-10T18:55:33.389Z,34.82
2023-10-10T18:57:59.748Z,34.83
2023-10-10T19:00:26.022Z,34.88
2023-10-10T19:02:52.535Z,35.30
2023-10-10T19:05:18.834Z,34.96
2023-10-10T19:07:45.274Z,34.96
2023-10-10T19:10:11.613Z,34.93
2023-10-10T19:12:38.006Z,34.91
2023-10-10T19:15:04.486Z,34.87
2023-10-10T19:17:30.904Z,34.93
2023-10-10T19:19:57.187Z,34.95
2023-10-10T19:22:23.506Z,34.98
2023-10-10T19:24:49.845Z,34.97
2023-10-10T19:27:16.200Z,35.06
2023-10-10T19:29:42.700Z,34.95
2023-10-10T19:32:08.974Z,34.95
2023-10-10T19:34:35.418Z,34.98
2023-10-10T19:37:01.827Z,35.00
2023-10-10T19:39:28.261Z,35.01
2023-10-10T19:41:54.625Z,35.00
2023-10-10T19:44:21.029Z,35.09
2023-10-10T19:46:47.409Z,35.04
2023-10-10T19:49:13.790Z,35.05
2023-10-10T19:51:40.137Z,35.05
2023-10-10T19:54:06.513Z,35.08
2023-10-10T19:56:32.860Z,35.06
2023-10-10T19:58:59.107Z,35.11
2023-10-10T20:01:25.564Z,35.09
2023-10-10T20:03:51.897Z,35.13
2023-10-10T20:06:18.217Z,35.91
2023-10-10T20:08:44.770Z,38.35
2023-10-10T20:11:10.998Z,38.59
2023-10-10T20:13:37.388Z,36.59
2023-10-10T20:16:03.704Z,35.92
2023-10-10T20:18:30.106Z,35.65
2023-10-10T20:20:56.429Z,35.54
2023-10-10T20:23:22.703Z,35.44
2023-10-10T20:25:49.032Z,35.38
2023-10-10T20:28:15.508Z,38.27
2023-10-10T20:30:41.986Z,38.15
2023-10-10T20:33:08.290Z,36.55
2023-10-10T20:35:34.607Z,35.87
2023-10-10T20:38:00.914Z,35.67
2023-10-10T20:40:27.279Z,35.55
2023-10-10T20:42:53.574Z,35.53
2023-10-10T20:45:19.907Z,35.52
2023-10-10T20:47:46.329Z,35.52
2023-10-10T20:50:12.609Z,35.52
2023-10-10T20:52:38.925Z,35.53
2023-10-10T20:55:05.246Z,35.53
2023-10-10T20:57:31.604Z,35.51
2023-10-10T20:59:57.945Z,35.55
2023-10-10T21:02:24.258Z,35.56
2023-10-10T21:04:50.689Z,35.69
2023-10-10T21:07:16.986Z,35.65
2023-10-10T21:09:43.494Z,35.61
2023-10-10T21:12:09.977Z,35.65
2023-10-10T21:14:36.329Z,35.63
2023-10-10T21:17:02.780Z,35.70
2023-10-10T21:19:29.171Z,35.68
2023-10-10T21:21:55.516Z,35.73
2023-10-10T21:24:21.841Z,35.74
2023-10-10T21:26:48.176Z,35.80
2023-10-10T21:29:14.499Z,35.79
2023-10-10T21:31:40.935Z,35.81
2023-10-10T21:34:07.466Z,35.82
2023-10-10T21:36:33.679Z,35.84
2023-10-10T21:39:00.034Z,35.92
2023-10-10T21:41:26.340Z,35.94
2023-10-10T21:43:52.784Z,35.91
2023-10-10T21:46:19.117Z,35.92
2023-10-10T21:48:45.528Z,35.95
2023-10-10T21:51:11.871Z,35.91
2023-10-10T21:53:38.335Z,35.95
2023-10-10T21:56:04.420Z,35.98
2023-10-10T21:58:30.889Z,36.03
2023-10-10T22:00:57.357Z,36.04
2023-10-10T22:03:23.843Z,36.11
2023-10-10T22:05:50.235Z,36.06
2023-10-10T22:08:16.618Z,36.19
2023-10-10T22:10:43.217Z,36.13
2023-10-10T22:13:09.376Z,36.14
2023-10-10T22:15:36.745Z,36.18
2023-10-10T22:18:02.355Z,36.21
2023-10-10T22:20:28.545Z,36.26
2023-10-10T22:22:55.060Z,36.24
2023-10-10T22:25:21.225Z,36.26
2023-10-10T22:27:47.532Z,36.31
2023-10-10T22:30:13.878Z,36.28
2023-10-10T22:32:40.270Z,36.34
2023-10-10T22:35:06.528Z,36.31
2023-10-10T22:37:32.914Z,38.02
2023-10-10T22:39:59.231Z,39.66
2023-10-10T22:42:25.533Z,39.90
2023-10-10T22:44:51.861Z,40.00
2023-10-10T22:47:18.225Z,39.99
2023-10-10T22:49:44.659Z,40.01
2023-10-10T22:52:10.961Z,39.95
2023-10-10T22:54:37.284Z,39.85
2023-10-10T22:57:03.714Z,39.76
2023-10-10T22:59:29.919Z,38.84
2023-10-10T23:01:56.334Z,37.56
2023-10-10T23:04:22.931Z,37.05
2023-10-10T23:06:49.171Z,36.74
2023-10-10T23:09:15.727Z,36.56
2023-10-10T23:11:42.058Z,36.42
2023-10-10T23:14:08.409Z,36.40
2023-10-10T23:16:34.779Z,37.25
2023-10-10T23:19:01.133Z,38.01
2023-10-10T23:21:27.397Z,38.31
2023-10-10T23:23:53.852Z,36.97
2023-10-10T23:26:20.158Z,39.45
2023-10-10T23:28:46.633Z,37.54
2023-10-10T23:31:13.121Z,37.33
2023-10-10T23:33:39.408Z,36.72
2023-10-10T23:36:05.708Z,37.78
2023-10-10T23:38:32.061Z,36.91
2023-10-10T23:40:58.422Z,36.59
2023-10-10T23:43:24.778Z,36.58
2023-10-10T23:45:51.197Z,36.52
2023-10-10T23:48:17.916Z,36.47
2023-10-10T23:50:43.917Z,36.48
2023-10-10T23:53:10.288Z,36.57
2023-10-10T23:55:36.717Z,36.59
2023-10-10T23:58:03.149Z,36.65
